createdAt,value
2022-11-06T00:00:33.142Z,99.98
2022-11-06T00:01:33.171Z,99.98
2022-11-06T00:02:33.182Z,99.88
2022-11-06T00:03:33.132Z,99.77
2022-11-06T00:04:33.087Z,99.77
2022-11-06T00:05:33.078Z,99.77
2022-11-06T00:06:33.065Z,99.57
2022-11-06T00:07:33.055Z,99.47
2022-11-06T00:08:33.076Z,99.47
2022-11-06T00:09:33.048Z,99.57
2022-11-06T00:10:33.033Z,99.26
2022-11-06T00:11:33.015Z,98.91
2022-11-06T00:12:33.003Z,98.80
2022-11-06T00:13:33.008Z,98.29
2022-11-06T00:14:32.981Z,98.50
2022-11-06T00:15:32.970Z,98.50
2022-11-06T00:16:32.960Z,98.39
2022-11-06T00:17:32.953Z,98.19
2022-11-06T00:18:32.949Z,97.99
2022-11-06T00:19:32.921Z,98.29
2022-11-06T00:20:32.911Z,97.06
2022-11-06T00:21:32.904Z,97.02
2022-11-06T00:22:32.891Z,97.12
2022-11-06T00:23:32.894Z,97.32
2022-11-06T00:24:32.876Z,97.42
2022-11-06T00:25:32.866Z,97.63
2022-11-06T00:26:32.842Z,97.73
2022-11-06T00:27:32.833Z,97.94
2022-11-06T00:28:32.837Z,97.57
2022-11-06T00:29:32.810Z,97.83
2022-11-06T00:30:32.792Z,98.04
2022-11-06T00:31:32.794Z,98.25
2022-11-06T00:32:32.778Z,98.35
2022-11-06T00:33:32.801Z,98.29
2022-11-06T00:34:32.753Z,98.29
2022-11-06T00:35:32.740Z,98.39
2022-11-06T00:36:32.740Z,98.50
2022-11-06T00:37:32.731Z,98.50
2022-11-06T00:38:32.709Z,98.60
2022-11-06T00:39:32.713Z,98.60
2022-11-06T00:40:32.691Z,98.80
2022-11-06T00:41:32.687Z,99.01
2022-11-06T00:42:32.673Z,99.01
2022-11-06T00:43:32.658Z,99.11
2022-11-06T00:44:32.664Z,99.21
2022-11-06T00:45:32.645Z,99.21
2022-11-06T00:46:32.618Z,99.11
2022-11-06T00:47:32.618Z,99.11
2022-11-06T00:48:32.604Z,99.21
2022-11-06T00:49:32.610Z,99.42
2022-11-06T00:50:32.579Z,99.52
2022-11-06T00:51:32.572Z,99.63
2022-11-06T00:52:32.568Z,99.83
2022-11-06T00:53:32.550Z,99.99
2022-11-06T00:54:32.548Z,99.99
2022-11-06T00:55:32.529Z,99.99
2022-11-06T00:56:32.511Z,99.99
2022-11-06T00:57:32.502Z,99.99
2022-11-06T00:58:32.484Z,99.99
2022-11-06T00:59:32.488Z,99.99
2022-11-06T01:00:32.465Z,99.99
2022-11-06T01:01:32.618Z,99.99
2022-11-06T01:02:32.637Z,99.99
2022-11-06T01:03:32.436Z,99.99
2022-11-06T01:04:32.450Z,99.99
2022-11-06T01:05:32.416Z,99.99
2022-11-06T01:06:32.400Z,99.99
2022-11-06T01:07:32.387Z,99.99
2022-11-06T01:08:32.377Z,99.99
2022-11-06T01:09:32.393Z,99.99
2022-11-06T01:10:32.354Z,99.99
2022-11-06T01:11:52.396Z,99.99
2022-11-06T01:12:32.339Z,99.99
2022-11-06T01:13:32.316Z,99.99
2022-11-06T01:14:32.321Z,99.99
2022-11-06T01:15:32.304Z,99.99
2022-11-06T01:16:32.288Z,99.99
2022-11-06T01:17:32.276Z,99.99
2022-11-06T01:18:32.265Z,99.99
2022-11-06T01:19:32.273Z,99.99
2022-11-06T01:20:32.243Z,99.99
2022-11-06T01:21:32.232Z,99.99
2022-11-06T01:22:32.218Z,99.99
2022-11-06T01:23:32.211Z,99.99
2022-11-06T01:24:32.323Z,99.99
2022-11-06T01:25:32.192Z,99.99
2022-11-06T01:26:38.297Z,99.99
2022-11-06T01:27:32.177Z,99.99
2022-11-06T01:28:32.146Z,99.99
2022-11-06T01:29:32.161Z,99.99
2022-11-06T01:30:32.128Z,99.99
2022-11-06T01:31:32.124Z,99.99
2022-11-06T01:32:32.105Z,99.99
2022-11-06T01:33:32.100Z,99.99
2022-11-06T01:34:32.097Z,99.99
2022-11-06T01:35:32.078Z,99.99
2022-11-06T01:36:32.071Z,99.99
2022-11-06T01:37:32.058Z,99.99
2022-11-06T01:38:32.047Z,99.99
2022-11-06T01:39:32.048Z,99.99
2022-11-06T01:40:32.018Z,99.99
2022-11-06T01:41:32.005Z,99.99
2022-11-06T01:42:31.995Z,99.99
2022-11-06T01:43:31.987Z,99.99
2022-11-06T01:44:31.988Z,99.99
2022-11-06T01:45:31.966Z,99.99
2022-11-06T01:46:31.953Z,99.99
2022-11-06T01:47:31.951Z,99.99
2022-11-06T01:48:31.931Z,99.99
2022-11-06T01:49:31.945Z,99.99
2022-11-06T01:50:31.908Z,99.99
2022-11-06T01:51:36.018Z,99.99
2022-11-06T01:52:31.880Z,99.99
2022-11-06T01:53:31.884Z,99.99
2022-11-06T01:54:31.876Z,99.99
2022-11-06T01:55:31.868Z,99.99
2022-11-06T01:56:31.842Z,99.99
2022-11-06T01:57:31.834Z,99.99
2022-11-06T01:58:31.813Z,99.99
2022-11-06T01:59:31.824Z,99.99
2022-11-06T02:00:31.795Z,99.99
2022-11-06T02:01:31.963Z,99.99
2022-11-06T02:02:31.902Z,99.99
2022-11-06T02:03:31.766Z,99.83
2022-11-06T02:04:31.764Z,99.73
2022-11-06T02:05:31.750Z,99.73
2022-11-06T02:06:31.731Z,99.58
2022-11-06T02:07:31.721Z,99.58
2022-11-06T02:08:31.716Z,99.79
2022-11-06T02:09:31.715Z,99.79
2022-11-06T02:10:31.682Z,99.89
2022-11-06T02:11:31.671Z,99.79
2022-11-06T02:12:31.667Z,99.89
2022-11-06T02:13:31.649Z,99.89
2022-11-06T02:14:31.659Z,99.89
2022-11-06T02:15:31.631Z,99.89
2022-11-06T02:16:31.622Z,99.99
2022-11-06T02:17:31.610Z,99.99
2022-11-06T02:18:31.601Z,99.99
2022-11-06T02:19:31.604Z,99.99
2022-11-06T02:20:31.581Z,99.99
2022-11-06T02:21:31.565Z,99.99
2022-11-06T02:22:31.551Z,99.99
2022-11-06T02:23:31.536Z,99.99
2022-11-06T02:24:31.555Z,99.99
2022-11-06T02:25:31.518Z,99.99
2022-11-06T02:26:31.505Z,99.89
2022-11-06T02:27:31.493Z,99.93
2022-11-06T02:28:31.490Z,99.89
2022-11-06T02:29:31.496Z,99.99
2022-11-06T02:30:31.461Z,99.89
2022-11-06T02:31:31.453Z,99.89
2022-11-06T02:32:31.438Z,99.89
2022-11-06T02:33:31.435Z,99.38
2022-11-06T02:34:31.429Z,99.48
2022-11-06T02:35:31.410Z,99.27
2022-11-06T02:36:31.390Z,98.76
2022-11-06T02:37:31.383Z,98.45
2022-11-06T02:38:31.372Z,98.76
2022-11-06T02:39:31.374Z,98.76
2022-11-06T02:40:31.355Z,98.86
2022-11-06T02:41:31.354Z,98.96
2022-11-06T02:42:31.319Z,99.07
2022-11-06T02:43:31.317Z,99.07
2022-11-06T02:44:31.324Z,99.07
2022-11-06T02:45:31.303Z,99.07
2022-11-06T02:46:31.353Z,99.27
2022-11-06T02:47:31.274Z,99.27
2022-11-06T02:48:31.249Z,99.17
2022-11-06T02:49:31.276Z,99.07
2022-11-06T02:50:31.230Z,98.86
2022-11-06T02:51:31.225Z,98.86
2022-11-06T02:52:31.212Z,99.07
2022-11-06T02:53:31.197Z,99.27
2022-11-06T02:54:31.209Z,99.27
2022-11-06T02:55:31.186Z,99.27
2022-11-06T02:56:31.162Z,98.25
2022-11-06T02:57:31.164Z,98.10
2022-11-06T02:58:31.148Z,98.20
2022-11-06T02:59:31.155Z,97.58
2022-11-06T03:00:31.129Z,97.89
2022-11-06T03:01:31.210Z,98.20
2022-11-06T03:02:31.344Z,98.30
2022-11-06T03:03:31.097Z,98.30
2022-11-06T03:04:31.092Z,98.30
2022-11-06T03:05:31.084Z,98.41
2022-11-06T03:06:31.068Z,98.10
2022-11-06T03:07:31.048Z,98.30
2022-11-06T03:08:31.036Z,98.41
2022-11-06T03:09:31.043Z,98.51
2022-11-06T03:10:31.010Z,98.76
2022-11-06T03:11:31.009Z,98.86
2022-11-06T03:12:30.991Z,98.86
2022-11-06T03:13:30.994Z,98.96
2022-11-06T03:14:30.980Z,98.96
2022-11-06T03:15:30.960Z,99.17
2022-11-06T03:16:30.948Z,99.27
2022-11-06T03:17:30.936Z,99.27
2022-11-06T03:18:30.921Z,99.27
2022-11-06T03:19:30.941Z,99.27
2022-11-06T03:20:30.898Z,99.17
2022-11-06T03:21:30.893Z,99.17
2022-11-06T03:22:30.876Z,98.25
2022-11-06T03:23:30.878Z,98.14
2022-11-06T03:24:31.446Z,98.10
2022-11-06T03:25:30.864Z,97.17
2022-11-06T03:26:30.845Z,97.38
2022-11-06T03:27:30.834Z,97.38
2022-11-06T03:28:30.822Z,97.48
2022-11-06T03:29:30.809Z,97.48
2022-11-06T03:30:30.809Z,97.28
2022-11-06T03:31:30.783Z,97.17
2022-11-06T03:32:30.785Z,97.48
2022-11-06T03:33:30.762Z,97.48
2022-11-06T03:34:30.748Z,97.07
2022-11-06T03:35:30.764Z,97.28
2022-11-06T03:36:30.721Z,97.48
2022-11-06T03:37:30.720Z,97.69
2022-11-06T03:38:30.715Z,97.89
2022-11-06T03:39:30.702Z,97.99
2022-11-06T03:40:30.707Z,97.99
2022-11-06T03:41:30.672Z,98.20
2022-11-06T03:42:30.662Z,98.20
2022-11-06T03:43:30.651Z,97.58
2022-11-06T03:44:30.637Z,97.58
2022-11-06T03:45:30.649Z,97.89
2022-11-06T03:46:30.614Z,97.58
2022-11-06T03:47:30.608Z,96.97
2022-11-06T03:48:30.600Z,97.28
2022-11-06T03:49:30.585Z,97.38
2022-11-06T03:50:30.589Z,97.69
2022-11-06T03:51:30.562Z,97.89
2022-11-06T03:52:30.557Z,97.58
2022-11-06T03:53:30.546Z,97.28
2022-11-06T03:54:30.547Z,97.38
2022-11-06T03:55:30.553Z,96.25
2022-11-06T03:56:30.512Z,96.62
2022-11-06T03:57:30.491Z,96.72
2022-11-06T03:58:30.513Z,96.20
2022-11-06T03:59:30.485Z,96.92
2022-11-06T04:00:30.476Z,96.92
2022-11-06T04:01:30.610Z,97.03
2022-11-06T04:02:30.539Z,96.92
2022-11-06T04:03:30.435Z,96.92
2022-11-06T04:04:30.426Z,96.82
2022-11-06T04:05:30.418Z,97.03
2022-11-06T04:06:30.397Z,97.38
2022-11-06T04:07:30.395Z,97.58
2022-11-06T04:08:30.372Z,97.99
2022-11-06T04:09:30.367Z,98.30
2022-11-06T04:10:30.372Z,98.51
2022-11-06T04:11:30.342Z,98.71
2022-11-06T04:12:30.344Z,98.92
2022-11-06T04:13:30.325Z,99.22
2022-11-06T04:14:30.311Z,99.43
2022-11-06T04:15:30.320Z,99.74
2022-11-06T04:16:30.305Z,99.99
2022-11-06T04:17:30.289Z,99.99
2022-11-06T04:18:30.263Z,99.99
2022-11-06T04:19:30.278Z,99.99
2022-11-06T04:20:30.262Z,99.99
2022-11-06T04:21:30.240Z,99.99
2022-11-06T04:22:30.225Z,99.99
2022-11-06T04:23:30.220Z,99.99
2022-11-06T04:24:30.207Z,99.99
2022-11-06T04:25:30.229Z,99.99
2022-11-06T04:26:30.178Z,99.99
2022-11-06T04:27:30.165Z,99.99
2022-11-06T04:28:30.158Z,99.99
2022-11-06T04:29:30.151Z,99.99
2022-11-06T04:30:30.153Z,99.99
2022-11-06T04:31:30.136Z,99.99
2022-11-06T04:32:30.116Z,99.99
2022-11-06T04:33:30.108Z,99.99
2022-11-06T04:34:30.091Z,99.99
2022-11-06T04:35:30.108Z,99.99
2022-11-06T04:36:30.068Z,99.99
2022-11-06T04:37:30.060Z,99.99
2022-11-06T04:38:30.053Z,99.99
2022-11-06T04:39:30.035Z,99.99
2022-11-06T04:40:30.047Z,99.99
2022-11-06T04:41:30.019Z,99.99
2022-11-06T04:42:30.002Z,99.99
2022-11-06T04:43:30.002Z,99.99
2022-11-06T04:44:29.985Z,99.99
2022-11-06T04:45:29.988Z,99.99
2022-11-06T04:46:29.952Z,99.99
2022-11-06T04:47:29.956Z,99.99
2022-11-06T04:48:29.939Z,99.99
2022-11-06T04:49:29.924Z,99.99
2022-11-06T04:50:29.929Z,99.93
2022-11-06T04:51:29.915Z,99.93
2022-11-06T04:52:29.895Z,99.99
2022-11-06T04:53:29.894Z,99.99
2022-11-06T04:54:29.868Z,99.99
2022-11-06T04:55:29.884Z,99.99
2022-11-06T04:56:32.878Z,99.99
2022-11-06T04:57:29.846Z,99.99
2022-11-06T04:58:29.826Z,99.99
2022-11-06T04:59:29.818Z,99.99
2022-11-06T05:00:29.855Z,99.99
2022-11-06T05:01:29.936Z,99.99
2022-11-06T05:02:29.856Z,99.99
2022-11-06T05:03:29.785Z,99.99
2022-11-06T05:04:29.761Z,99.99
2022-11-06T05:05:29.772Z,99.99
2022-11-06T05:06:30.409Z,99.99
2022-11-06T05:07:29.749Z,99.99
2022-11-06T05:08:29.719Z,99.99
2022-11-06T05:09:29.716Z,99.98
2022-11-06T05:10:29.717Z,99.42
2022-11-06T05:11:29.695Z,99.32
2022-11-06T05:12:29.675Z,99.42
2022-11-06T05:13:29.663Z,99.32
2022-11-06T05:14:29.652Z,99.32
2022-11-06T05:15:29.669Z,99.32
2022-11-06T05:16:29.635Z,98.91
2022-11-06T05:17:33.922Z,98.91
2022-11-06T05:18:29.623Z,98.96
2022-11-06T05:19:29.613Z,98.85
2022-11-06T05:20:29.607Z,98.75
2022-11-06T05:21:29.582Z,98.85
2022-11-06T05:22:29.563Z,98.85
2022-11-06T05:23:29.554Z,98.54
2022-11-06T05:24:29.542Z,98.54
2022-11-06T05:25:29.559Z,98.54
2022-11-06T05:26:29.523Z,98.65
2022-11-06T05:27:29.513Z,98.75
2022-11-06T05:28:29.502Z,98.85
2022-11-06T05:29:29.491Z,98.85
2022-11-06T05:30:29.500Z,98.54
2022-11-06T05:31:29.472Z,98.54
2022-11-06T05:32:31.229Z,98.65
2022-11-06T05:33:29.454Z,98.90
2022-11-06T05:34:29.430Z,99.10
2022-11-06T05:35:29.440Z,99.21
2022-11-06T05:36:29.410Z,99.21
2022-11-06T05:37:29.403Z,99.31
2022-11-06T05:38:29.385Z,99.31
2022-11-06T05:39:29.375Z,99.51
2022-11-06T05:40:29.396Z,99.62
2022-11-06T05:41:29.352Z,99.62
2022-11-06T05:42:29.345Z,99.72
2022-11-06T05:43:29.332Z,99.87
2022-11-06T05:44:29.312Z,99.72
2022-11-06T05:45:29.322Z,99.31
2022-11-06T05:46:47.728Z,99.10
2022-11-06T05:47:29.289Z,99.00
2022-11-06T05:48:29.270Z,99.10
2022-11-06T05:49:29.267Z,99.10
2022-11-06T05:50:29.258Z,99.10
2022-11-06T05:51:29.237Z,99.21
2022-11-06T05:52:29.226Z,99.21
2022-11-06T05:53:29.230Z,99.10
2022-11-06T05:54:29.207Z,99.21
2022-11-06T05:55:29.207Z,99.31
2022-11-06T05:56:29.185Z,99.41
2022-11-06T05:57:29.181Z,99.51
2022-11-06T05:58:29.164Z,99.51
2022-11-06T05:59:29.148Z,99.62
2022-11-06T06:00:29.161Z,99.62
2022-11-06T06:01:29.236Z,99.72
2022-11-06T06:02:29.289Z,99.82
2022-11-06T06:03:29.108Z,99.93
2022-11-06T06:04:29.102Z,99.82
2022-11-06T06:05:29.111Z,99.72
2022-11-06T06:06:29.079Z,99.72
2022-11-06T06:07:29.060Z,99.82
2022-11-06T06:08:29.050Z,99.82
2022-11-06T06:09:29.050Z,99.72
2022-11-06T06:10:29.027Z,99.72
2022-11-06T06:11:29.033Z,99.72
2022-11-06T06:12:29.018Z,99.72
2022-11-06T06:13:29.005Z,99.93
2022-11-06T06:14:30.472Z,99.93
2022-11-06T06:15:28.974Z,99.82
2022-11-06T06:16:28.972Z,99.82
2022-11-06T06:17:28.956Z,99.93
2022-11-06T06:18:28.941Z,99.93
2022-11-06T06:19:28.925Z,99.93
2022-11-06T06:20:28.915Z,99.99
2022-11-06T06:21:28.928Z,99.82
2022-11-06T06:22:28.892Z,99.72
2022-11-06T06:23:28.894Z,99.31
2022-11-06T06:24:28.971Z,99.41
2022-11-06T06:25:28.928Z,99.41
2022-11-06T06:26:28.863Z,99.51
2022-11-06T06:27:28.845Z,99.51
2022-11-06T06:28:28.836Z,99.66
2022-11-06T06:29:28.825Z,99.77
2022-11-06T06:30:28.796Z,99.66
2022-11-06T06:31:28.807Z,99.77
2022-11-06T06:32:28.775Z,99.77
2022-11-06T06:33:28.793Z,99.77
2022-11-06T06:34:28.765Z,99.87
2022-11-06T06:35:28.745Z,99.87
2022-11-06T06:36:28.768Z,99.97
2022-11-06T06:37:28.729Z,99.99
2022-11-06T06:38:28.724Z,99.99
2022-11-06T06:39:28.701Z,99.99
2022-11-06T06:40:28.692Z,99.99
2022-11-06T06:41:28.696Z,99.99
2022-11-06T06:42:31.246Z,99.99
2022-11-06T06:43:28.669Z,99.99
2022-11-06T06:44:28.648Z,99.99
2022-11-06T06:45:28.650Z,99.99
2022-11-06T06:46:28.657Z,99.99
2022-11-06T06:47:28.615Z,99.99
2022-11-06T06:48:28.601Z,99.99
2022-11-06T06:49:28.604Z,99.99
2022-11-06T06:50:28.588Z,99.99
2022-11-06T06:51:28.584Z,99.99
2022-11-06T06:52:28.559Z,99.99
2022-11-06T06:53:28.559Z,99.99
2022-11-06T06:54:28.540Z,99.99
2022-11-06T06:55:28.523Z,99.99
2022-11-06T06:56:28.534Z,99.99
2022-11-06T06:57:28.510Z,99.98
2022-11-06T06:58:28.514Z,99.98
2022-11-06T06:59:28.481Z,99.98
2022-11-06T07:00:28.468Z,99.98
2022-11-06T07:01:28.674Z,99.98
2022-11-06T07:02:28.512Z,99.88
2022-11-06T07:03:28.441Z,99.67
2022-11-06T07:04:28.422Z,99.57
2022-11-06T07:05:28.407Z,99.26
2022-11-06T07:06:28.418Z,98.96
2022-11-06T07:07:28.419Z,98.96
2022-11-06T07:08:28.375Z,99.26
2022-11-06T07:09:28.373Z,99.21
2022-11-06T07:10:28.468Z,99.21
2022-11-06T07:11:28.360Z,99.21
2022-11-06T07:12:28.337Z,99.42
2022-11-06T07:13:32.768Z,99.52
2022-11-06T07:14:28.308Z,99.63
2022-11-06T07:15:28.306Z,99.73
2022-11-06T07:16:28.311Z,99.93
2022-11-06T07:17:28.282Z,99.99
2022-11-06T07:18:28.265Z,99.99
2022-11-06T07:19:28.254Z,99.99
2022-11-06T07:20:28.321Z,99.99
2022-11-06T07:21:28.258Z,99.99
2022-11-06T07:22:35.555Z,99.99
2022-11-06T07:23:28.215Z,99.99
2022-11-06T07:24:28.196Z,99.99
2022-11-06T07:25:28.196Z,99.99
2022-11-06T07:26:28.193Z,99.99
2022-11-06T07:27:28.173Z,99.99
2022-11-06T07:28:28.163Z,99.99
2022-11-06T07:29:28.152Z,99.99
2022-11-06T07:30:28.189Z,99.79
2022-11-06T07:31:28.139Z,99.79
2022-11-06T07:32:28.105Z,99.48
2022-11-06T07:33:28.120Z,99.38
2022-11-06T07:34:28.094Z,99.38
2022-11-06T07:35:28.086Z,98.86
2022-11-06T07:36:28.086Z,98.55
2022-11-06T07:37:28.127Z,98.76
2022-11-06T07:38:28.039Z,98.96
2022-11-06T07:39:28.037Z,99.07
2022-11-06T07:40:28.063Z,99.07
2022-11-06T07:41:28.034Z,98.76
2022-11-06T07:42:28.002Z,98.76
2022-11-06T07:43:27.991Z,98.82
2022-11-06T07:44:27.973Z,99.02
2022-11-06T07:45:27.969Z,99.33
2022-11-06T07:46:27.970Z,99.22
2022-11-06T07:47:27.944Z,98.61
2022-11-06T07:48:27.930Z,97.64
2022-11-06T07:49:27.921Z,97.13
2022-11-06T07:50:27.995Z,97.23
2022-11-06T07:51:27.913Z,96.72
2022-11-06T07:52:27.900Z,97.03
2022-11-06T07:53:27.878Z,96.10
2022-11-06T07:54:27.858Z,95.39
2022-11-06T07:55:27.860Z,96.26
2022-11-06T07:56:27.856Z,96.67
2022-11-06T07:57:27.832Z,96.78
2022-11-06T07:58:27.822Z,97.29
2022-11-06T07:59:27.813Z,97.39
2022-11-06T08:00:27.868Z,97.19
2022-11-06T08:01:27.914Z,97.24
2022-11-06T08:02:27.826Z,97.14
2022-11-06T08:03:27.776Z,96.73
2022-11-06T08:04:27.762Z,96.63
2022-11-06T08:05:27.745Z,95.81
2022-11-06T08:06:27.759Z,95.81
2022-11-06T08:07:27.727Z,95.70
2022-11-06T08:08:27.717Z,95.81
2022-11-06T08:09:27.708Z,95.40
2022-11-06T08:10:27.807Z,93.55
2022-11-06T08:11:27.695Z,94.74
2022-11-06T08:12:27.668Z,95.15
2022-11-06T08:13:27.656Z,95.25
2022-11-06T08:14:27.640Z,95.15
2022-11-06T08:15:27.640Z,95.36
2022-11-06T08:16:27.638Z,95.62
2022-11-06T08:17:27.621Z,95.31
2022-11-06T08:18:27.610Z,94.59
2022-11-06T08:19:27.600Z,94.49
2022-11-06T08:20:27.619Z,94.29
2022-11-06T08:21:27.592Z,93.67
2022-11-06T08:22:27.559Z,92.65
2022-11-06T08:23:27.546Z,93.16
2022-11-06T08:24:27.534Z,93.67
2022-11-06T08:25:27.526Z,93.06
2022-11-06T08:26:27.536Z,92.71
2022-11-06T08:27:27.501Z,92.50
2022-11-06T08:28:27.493Z,91.99
2022-11-06T08:29:27.483Z,93.22
2022-11-06T08:30:27.538Z,93.63
2022-11-06T08:31:27.479Z,93.84
2022-11-06T08:32:27.443Z,93.52
2022-11-06T08:33:27.439Z,93.48
2022-11-06T08:34:27.421Z,93.69
2022-11-06T08:35:27.414Z,91.44
2022-11-06T08:36:27.409Z,92.05
2022-11-06T08:37:27.387Z,92.66
2022-11-06T08:38:27.375Z,92.97
2022-11-06T08:39:27.372Z,91.74
2022-11-06T08:40:30.928Z,92.25
2022-11-06T08:41:27.362Z,92.66
2022-11-06T08:42:27.329Z,92.97
2022-11-06T08:43:27.329Z,92.87
2022-11-06T08:44:27.309Z,92.66
2022-11-06T08:45:27.295Z,92.25
2022-11-06T08:46:27.305Z,93.18
2022-11-06T08:47:27.274Z,92.97
2022-11-06T08:48:27.264Z,92.87
2022-11-06T08:49:27.255Z,92.87
2022-11-06T08:50:27.247Z,93.07
2022-11-06T08:51:27.254Z,92.97
2022-11-06T08:52:32.800Z,93.28
2022-11-06T08:53:27.264Z,92.05
2022-11-06T08:54:27.191Z,91.33
2022-11-06T08:55:27.196Z,91.54
2022-11-06T08:56:27.193Z,92.25
2022-11-06T08:57:27.165Z,93.07
2022-11-06T08:58:27.156Z,93.48
2022-11-06T08:59:27.141Z,93.38
2022-11-06T09:00:27.169Z,93.22
2022-11-06T09:01:27.315Z,92.10
2022-11-06T09:02:27.194Z,91.99
2022-11-06T09:03:27.095Z,93.01
2022-11-06T09:04:27.083Z,93.48
2022-11-06T09:05:27.080Z,93.48
2022-11-06T09:06:27.084Z,93.59
2022-11-06T09:07:27.050Z,92.15
2022-11-06T09:08:27.035Z,93.38
2022-11-06T09:09:27.026Z,93.28
2022-11-06T09:10:27.017Z,93.59
2022-11-06T09:11:27.023Z,93.89
2022-11-06T09:12:26.992Z,93.69
2022-11-06T09:13:26.998Z,93.07
2022-11-06T09:14:26.964Z,91.95
2022-11-06T09:15:26.964Z,92.52
2022-11-06T09:16:26.959Z,92.52
2022-11-06T09:17:26.938Z,92.52
2022-11-06T09:18:26.917Z,92.72
2022-11-06T09:19:26.919Z,92.11
2022-11-06T09:20:26.905Z,92.21
2022-11-06T09:21:26.907Z,92.01
2022-11-06T09:22:26.883Z,90.88
2022-11-06T09:23:26.875Z,90.78
2022-11-06T09:24:43.611Z,91.80
2022-11-06T09:25:26.850Z,91.66
2022-11-06T09:26:26.846Z,91.76
2022-11-06T09:27:26.820Z,91.25
2022-11-06T09:28:26.819Z,91.96
2022-11-06T09:29:26.800Z,91.96
2022-11-06T09:30:26.784Z,91.76
2022-11-06T09:31:26.795Z,92.07
2022-11-06T09:32:26.764Z,92.23
2022-11-06T09:33:26.762Z,92.02
2022-11-06T09:34:26.737Z,91.92
2022-11-06T09:35:26.741Z,91.61
2022-11-06T09:36:26.735Z,91.72
2022-11-06T09:37:26.713Z,91.92
2022-11-06T09:38:26.695Z,92.54
2022-11-06T09:39:26.695Z,91.61
2022-11-06T09:40:26.678Z,91.41
2022-11-06T09:41:26.682Z,91.61
2022-11-06T09:42:26.650Z,91.61
2022-11-06T09:43:50.682Z,91.98
2022-11-06T09:44:26.638Z,92.29
2022-11-06T09:45:26.622Z,91.67
2022-11-06T09:46:26.624Z,90.96
2022-11-06T09:47:26.597Z,90.75
2022-11-06T09:48:26.585Z,91.16
2022-11-06T09:49:26.578Z,90.45
2022-11-06T09:50:26.560Z,90.55
2022-11-06T09:51:26.581Z,90.45
2022-11-06T09:52:26.540Z,90.25
2022-11-06T09:53:26.544Z,91.06
2022-11-06T09:54:26.514Z,91.78
2022-11-06T09:55:26.526Z,91.47
2022-11-06T09:56:26.516Z,90.86
2022-11-06T09:57:26.492Z,91.16
2022-11-06T09:58:26.472Z,91.12
2022-11-06T09:59:26.468Z,90.20
2022-11-06T10:00:26.450Z,90.31
2022-11-06T10:01:27.628Z,90.51
2022-11-06T10:02:26.559Z,90.61
2022-11-06T10:03:26.420Z,91.02
2022-11-06T10:04:26.411Z,91.33
2022-11-06T10:05:26.404Z,91.06
2022-11-06T10:06:26.391Z,90.66
2022-11-06T10:07:26.375Z,91.06
2022-11-06T10:08:26.360Z,91.27
2022-11-06T10:09:26.351Z,91.37
2022-11-06T10:10:26.342Z,91.37
2022-11-06T10:11:26.352Z,91.47
2022-11-06T10:12:26.318Z,91.61
2022-11-06T10:13:26.314Z,91.92
2022-11-06T10:14:26.296Z,92.02
2022-11-06T10:15:26.288Z,92.43
2022-11-06T10:16:26.283Z,91.82
2022-11-06T10:17:26.261Z,91.00
2022-11-06T10:18:26.255Z,91.82
2022-11-06T10:19:26.252Z,91.20
2022-11-06T10:20:27.462Z,91.47
2022-11-06T10:21:26.240Z,91.37
2022-11-06T10:22:26.213Z,90.86
2022-11-06T10:23:26.200Z,91.16
2022-11-06T10:24:26.186Z,90.96
2022-11-06T10:25:26.172Z,91.63
2022-11-06T10:26:31.225Z,91.53
2022-11-06T10:27:26.149Z,91.12
2022-11-06T10:28:26.134Z,90.00
2022-11-06T10:29:26.128Z,90.16
2022-11-06T10:30:26.116Z,88.63
2022-11-06T10:31:26.119Z,89.96
2022-11-06T10:32:26.096Z,90.06
2022-11-06T10:33:26.088Z,89.86
2022-11-06T10:34:26.071Z,88.73
2022-11-06T10:35:26.063Z,89.30
2022-11-06T10:36:26.070Z,88.90
2022-11-06T10:37:26.040Z,88.59
2022-11-06T10:38:26.029Z,89.51
2022-11-06T10:39:26.027Z,89.71
2022-11-06T10:40:26.005Z,89.20
2022-11-06T10:41:26.014Z,88.96
2022-11-06T10:42:25.981Z,89.36
2022-11-06T10:43:25.984Z,89.47
2022-11-06T10:44:25.957Z,89.36
2022-11-06T10:45:25.951Z,89.77
2022-11-06T10:46:25.956Z,87.94
2022-11-06T10:47:25.935Z,88.65
2022-11-06T10:48:30.046Z,88.08
2022-11-06T10:49:25.921Z,87.26
2022-11-06T10:50:25.899Z,87.88
2022-11-06T10:51:25.906Z,88.90
2022-11-06T10:52:25.879Z,89.71
2022-11-06T10:53:25.877Z,88.79
2022-11-06T10:54:25.862Z,89.30
2022-11-06T10:55:25.845Z,90.63
2022-11-06T10:56:25.824Z,91.03
2022-11-06T10:57:25.832Z,91.44
2022-11-06T10:58:25.813Z,91.89
2022-11-06T10:59:25.804Z,91.89
2022-11-06T11:00:25.786Z,91.79
2022-11-06T11:01:25.942Z,91.79
2022-11-06T11:02:25.920Z,92.10
2022-11-06T11:03:25.752Z,90.57
2022-11-06T11:04:25.743Z,90.57
2022-11-06T11:05:25.732Z,91.39
2022-11-06T11:06:25.721Z,91.89
2022-11-06T11:07:25.729Z,92.10
2022-11-06T11:08:25.700Z,92.30
2022-11-06T11:09:25.690Z,92.10
2022-11-06T11:10:25.687Z,92.14
2022-11-06T11:11:25.663Z,92.24
2022-11-06T11:12:25.662Z,92.86
2022-11-06T11:13:25.646Z,92.35
2022-11-06T11:14:25.637Z,92.35
2022-11-06T11:15:25.729Z,92.35
2022-11-06T11:16:25.609Z,92.14
2022-11-06T11:17:25.615Z,92.55
2022-11-06T11:18:25.590Z,92.55
2022-11-06T11:19:25.574Z,92.76
2022-11-06T11:20:25.569Z,93.06
2022-11-06T11:21:25.555Z,93.16
2022-11-06T11:22:30.320Z,93.06
2022-11-06T11:23:25.616Z,93.47
2022-11-06T11:24:25.529Z,92.86
2022-11-06T11:25:25.517Z,92.55
2022-11-06T11:26:25.504Z,92.35
2022-11-06T11:27:25.498Z,92.55
2022-11-06T11:28:25.480Z,92.45
2022-11-06T11:29:25.469Z,92.24
2022-11-06T11:30:25.459Z,92.65
2022-11-06T11:31:25.449Z,92.86
2022-11-06T11:32:25.449Z,92.86
2022-11-06T11:33:25.419Z,92.65
2022-11-06T11:34:25.415Z,92.24
2022-11-06T11:35:25.396Z,91.43
2022-11-06T11:36:25.387Z,92.14
2022-11-06T11:37:25.406Z,92.65
2022-11-06T11:38:25.360Z,92.55
2022-11-06T11:39:25.359Z,92.86
2022-11-06T11:40:25.338Z,91.43
2022-11-06T11:41:25.341Z,91.83
2022-11-06T11:42:25.334Z,91.74
2022-11-06T11:43:25.310Z,90.36
2022-11-06T11:44:25.295Z,91.28
2022-11-06T11:45:25.291Z,91.59
2022-11-06T11:46:25.280Z,91.08
2022-11-06T11:47:25.286Z,92.10
2022-11-06T11:48:25.260Z,91.89
2022-11-06T11:49:25.252Z,92.10
2022-11-06T11:50:25.240Z,92.10
2022-11-06T11:51:25.220Z,92.10
2022-11-06T11:52:25.224Z,92.20
2022-11-06T11:53:25.205Z,92.65
2022-11-06T11:54:25.189Z,92.86
2022-11-06T11:55:25.180Z,92.86
2022-11-06T11:56:42.839Z,91.94
2022-11-06T11:57:25.180Z,92.35
2022-11-06T11:58:25.144Z,91.22
2022-11-06T11:59:25.155Z,91.79
2022-11-06T12:00:25.125Z,91.49
2022-11-06T12:01:25.147Z,91.59
2022-11-06T12:02:27.525Z,90.94
2022-11-06T12:03:25.168Z,91.55
2022-11-06T12:04:25.079Z,90.99
2022-11-06T12:05:25.086Z,90.28
2022-11-06T12:06:25.057Z,90.28
2022-11-06T12:07:25.064Z,90.03
2022-11-06T12:08:25.067Z,89.73
2022-11-06T12:09:25.028Z,88.51
2022-11-06T12:10:25.011Z,88.87
2022-11-06T12:11:25.005Z,89.89
2022-11-06T12:12:25.009Z,90.09
2022-11-06T12:13:24.982Z,90.36
2022-11-06T12:14:24.969Z,90.16
2022-11-06T12:15:24.957Z,88.53
2022-11-06T12:16:24.948Z,88.53
2022-11-06T12:17:24.960Z,89.34
2022-11-06T12:18:24.925Z,89.44
2022-11-06T12:19:24.919Z,88.63
2022-11-06T12:20:24.897Z,88.63
2022-11-06T12:21:24.891Z,88.89
2022-11-06T12:22:24.896Z,89.14
2022-11-06T12:23:24.874Z,89.64
2022-11-06T12:24:24.853Z,89.20
2022-11-06T12:25:24.848Z,89.40
2022-11-06T12:26:24.827Z,89.40
2022-11-06T12:27:24.849Z,89.09
2022-11-06T12:28:24.808Z,88.89
2022-11-06T12:29:24.808Z,89.61
2022-11-06T12:30:24.792Z,89.09
2022-11-06T12:31:24.780Z,89.30
2022-11-06T12:32:24.779Z,89.87
2022-11-06T12:33:59.527Z,90.37
2022-11-06T12:34:24.744Z,90.27
2022-11-06T12:35:24.739Z,87.93
2022-11-06T12:36:24.723Z,88.24
2022-11-06T12:37:24.726Z,85.29
2022-11-06T12:38:24.696Z,85.46
2022-11-06T12:39:24.695Z,86.27
2022-11-06T12:40:25.636Z,86.77
2022-11-06T12:41:24.663Z,87.45
2022-11-06T12:42:24.666Z,87.75
2022-11-06T12:43:24.645Z,87.65
2022-11-06T12:44:24.637Z,87.55
2022-11-06T12:45:24.626Z,87.30
2022-11-06T12:46:24.612Z,86.80
2022-11-06T12:47:26.606Z,87.61
2022-11-06T12:48:24.583Z,85.68
2022-11-06T12:49:24.583Z,86.39
2022-11-06T12:50:24.568Z,85.98
2022-11-06T12:51:24.560Z,84.80
2022-11-06T12:52:24.561Z,85.52